Nearby METAR Reports

 

KHFD - Hartford/Brainar, Connecticut, USA
Distance from station: NW 13mi, 20km
Updated: Sun, 16-Dec-2018 1:53am EST
Clear
Clear
 Wind from N
Wind: N 8 mph , 13 km/h
Temperature: 37°F , 3°C
Wind Chill: 31°F , -1°C
Dew Point: 28°F , -2°C
Humidity: 70%
Barometer: 30.18 inHg , 1022 hPa
Clouds: Clear
2018/12/16 06:53 KHFD 160653Z AUTO 01007KT CLR 03/M02 A3018 RMK AO2 SLP220 T00331017 $
KSNC - Chester, Connecticut, USA
Distance from station: S 15mi, 23km
Updated: Sun, 16-Dec-2018 2:15am EST
Clear
Clear
 Wind from ENE
Wind: ENE 12 mph , 19 km/h, Gust: 18 mph , 30 km/h
Temperature: 41°F , 5°C
Wind Chill: 34°F , 1°C
Dew Point: 32°F , 0°C
Humidity: 70%
Barometer: 30.10 inHg , 1019.3 hPa
Clouds: Clear
Visibility: 10 miles , 16 km
2018/12/16 07:15 KSNC 160715Z AUTO 06010G16KT 10SM CLR 05/00 A3010 RMK AO2
 
KMMK - Meriden, Connecticut, USA
Distance from station: WSW 18mi, 30km
Updated: Sun, 16-Dec-2018 1:53am EST
Few Clouds
Few Clouds
 Wind from NNE
Wind: NNE 8 mph , 13 km/h
Temperature: 39°F , 4°C
Wind Chill: 33°F , 1°C
Dew Point: 30°F , -1°C
Humidity: 70%
Barometer: 30.15 inHg , 1021 hPa
Clouds: Few Clouds
Visibility: 10 miles , 16 km
Cloud details: Few Clouds 6000 ft
2018/12/16 06:53 KMMK 160653Z AUTO 02007KT 10SM FEW060 04/M01 A3015 RMK AO2 SLP210 T00441011
KIJD - Willimantic, Connecticut, USA
Distance from station: NE 19mi, 31km
Updated: Sun, 16-Dec-2018 1:52am EST
Clear
Clear
 Wind from NE
Wind: NE 7 mph , 11 km/h
Temperature: 37°F , 3°C
Wind Chill: 32°F , 0°C
Dew Point: 32°F , 0°C
Humidity: 81%
Barometer: 30.18 inHg , 1022 hPa
Clouds: Clear
Visibility: 10 miles , 16 km
2018/12/16 06:52 KIJD 160652Z AUTO 04006KT 10SM CLR 03/00 A3018 RMK AO2 SLP220 T00330000 $
 
KBDL - Windsor Locks, Connecticut, USA
Distance from station: NNW 25mi, 41km
Updated: Sun, 16-Dec-2018 1:51am EST
Mostly cloudy
Mostly cloudy
 Wind from N
Wind: N 9 mph , 15 km/h
Temperature: 36°F , 2°C
Wind Chill: 29°F , -2°C
Dew Point: 27°F , -3°C
Humidity: 70%
Barometer: 30.18 inHg , 1022 hPa
Clouds: Mostly cloudy
Visibility: 10 miles , 16 km
Cloud details: Partly cloudy 21000 ft
Mostly cloudy 25000 ft
2018/12/16 06:51 KBDL 160651Z 01008KT 10SM SCT210 BKN250 02/M03 A3018 RMK AO2 SLP221 T00171028
KGON - Groton/New Londo, Connecticut, USA
Distance from station: SE 29mi, 47km
Updated: Sun, 16-Dec-2018 1:56am EST
Clear
Clear
 Wind from NE
Wind: NE 17 mph , 28 km/h, Gust: 25 mph , 41 km/h
Temperature: 43°F , 6°C
Wind Chill: 35°F , 2°C
Dew Point: 34°F , 1°C
Humidity: 71%
Barometer: 30.14 inHg , 1020.7 hPa
Clouds: Clear
Visibility: 10 miles , 16 km
2018/12/16 06:56 KGON 160656Z AUTO 05015G22KT 10SM CLR 06/01 A3014 RMK AO2 SLP206 T00610006
 
KHVN - New Haven/Tweed, Connecticut, USA
Distance from station: SW 30mi, 48km
Updated: Sun, 16-Dec-2018 1:53am EST
Mostly cloudy
Mostly cloudy
 Wind from NE
Wind: NE 12 mph , 19 km/h
Temperature: 45°F , 7°C
Wind Chill: 39°F , 4°C
Dew Point: 34°F , 1°C
Humidity: 66%
Barometer: 30.12 inHg , 1020 hPa
Clouds: Mostly cloudy
Visibility: 10 miles , 16 km
Cloud details: Mostly cloudy 5000 ft
2018/12/16 06:53 KHVN 160653Z AUTO 05010KT 10SM BKN050 07/01 A3012 RMK AO2 SLP199 T00670006 TSNO
KOXC - Oxford/Waterbury, Connecticut, USA
Distance from station: WSW 34mi, 55km
Updated: Sun, 16-Dec-2018 1:51am EST
Clear
Clear
 Wind from ENE
Wind: ENE 14 mph , 22 km/h
Temperature: 37°F , 3°C
Wind Chill: 28°F , -2°C
Dew Point: 30°F , -1°C
Humidity: 75%
Barometer: 30.12 inHg , 1020 hPa
Clouds: Clear
Visibility: 10 miles , 16 km
2018/12/16 06:51 KOXC 160651Z AUTO 06012KT 10SM CLR 03/M01 A3012 RMK AO2 SLP214 T00331011
 
KWST - Westerly, Rhode Island, USA
Distance from station: ESE 40mi, 64km
Updated: Sun, 16-Dec-2018 1:53am EST
Clear
Clear
 Wind from NE
Wind: NE 10 mph , 17 km/h, Gust: 20 mph , 31 km/h
Temperature: 45°F , 7°C
Wind Chill: 40°F , 4°C
Dew Point: 36°F , 2°C
Humidity: 71%
Barometer: 30.14 inHg , 1020.7 hPa
Clouds: Clear
Visibility: 10 miles , 16 km
2018/12/16 06:53 KWST 160653Z AUTO 05009G17KT 10SM CLR 07/02 A3014 RMK AO2 SLP206 T00670017
KBAF - Westfield, Massachusetts, USA
Distance from station: NNW 41mi, 66km
Updated: Sun, 16-Dec-2018 1:53am EST
Clear
Clear
 Wind from NNE
Wind: NNE 9 mph , 15 km/h
Temperature: 36°F , 2°C
Wind Chill: 29°F , -2°C
Dew Point: 27°F , -3°C
Humidity: 70%
Barometer: 30.18 inHg , 1022 hPa
Clouds: Clear
Visibility: 10 miles , 16 km
2018/12/16 06:53 KBAF 160653Z AUTO 02008KT 10SM CLR 02/M03 A3018 RMK AO2 SLP224 T00171033
 
KCEF - Chicopee/Westove, Massachusetts, USA
Distance from station: N 42mi, 67km
Updated: Sun, 16-Dec-2018 1:56am EST
Clear
Clear
 Wind from N
Wind: N 6 mph , 9 km/h
Temperature: 36°F , 2°C
Wind Chill: 31°F , -1°C
Dew Point: 25°F , -4°C
Humidity: 65%
Barometer: 30.17 inHg , 1021.7 hPa
Clouds: Clear
Visibility: 10 miles , 16 km
2018/12/16 06:56 KCEF 160656Z AUTO 36005KT 10SM CLR 02/M04 A3017 RMK AO2 SLPNO T00161037
KBDR - Bridgeport, Connecticut, USA
Distance from station: SW 44mi, 72km
Updated: Sun, 16-Dec-2018 1:52am EST
Overcast
Overcast
 Wind from ENE
Wind: ENE 17 mph , 28 km/h, Gust: 26 mph , 43 km/h
Temperature: 45°F , 7°C
Wind Chill: 38°F , 3°C
Dew Point: 32°F , 0°C
Humidity: 61%
Barometer: 30.11 inHg , 1019.6 hPa
Clouds: Overcast
Visibility: 10 miles , 16 km
Cloud details: Overcast 4900 ft
2018/12/16 06:52 KBDR 160652Z AUTO 06015G23KT 10SM OVC049 07/00 A3011 RMK AO2 SLP196 T00670000
 
KHTO - East Hampton, New York, USA
Distance from station: SSE 46mi, 74km
Updated: Sun, 16-Dec-2018 1:55am EST
Partly cloudy
Partly cloudy
 Wind from ENE
Wind: ENE 16 mph , 26 km/h, Gust: 24 mph , 39 km/h
Temperature: 43°F , 6°C
Wind Chill: 35°F , 2°C
Dew Point: 36°F , 2°C
Humidity: 76%
Barometer: 30.10 inHg , 1019.3 hPa
Clouds: Partly cloudy
Visibility: 10 miles , 16 km
Cloud details: Partly cloudy 5000 ft
2018/12/16 06:55 KHTO 160655Z AUTO 06014G21KT 10SM SCT050 06/02 A3010 RMK AO2 T00600016
KMTP - Montauk, New York, USA
Distance from station: SE 47mi, 76km
Updated: Sun, 16-Dec-2018 1:54am EST

 Wind from ENE
Wind: ENE 16 mph , 26 km/h, Gust: 29 mph , 46 km/h
Temperature: 45°F , 7°C
Wind Chill: 38°F , 3°C
Dew Point: 37°F , 3°C
Humidity: 76%
Barometer: 30.12 inHg , 1020 hPa
2018/12/16 06:54 KMTP 160654Z AUTO 06014G25KT 07/03 A3012 RMK AO1 PK WND 07027/0608 SLP200 T00670028